createdAt,value
2022-09-25T00:00:13.944Z,5.97
2022-09-25T00:00:50.556Z,5.37
2022-09-25T00:01:22.906Z,5.70
2022-09-25T00:01:55.320Z,5.60
2022-09-25T00:02:30.293Z,6.20
2022-09-25T00:03:02.943Z,6.27
2022-09-25T00:03:37.947Z,6.60
2022-09-25T00:04:10.483Z,7.10
2022-09-25T00:04:42.886Z,8.63
2022-09-25T00:05:17.985Z,6.50
2022-09-25T00:05:50.563Z,6.50
2022-09-25T00:06:24.800Z,6.53
2022-09-25T00:06:59.692Z,6.67
2022-09-25T00:07:32.272Z,4.90
2022-09-25T00:08:07.682Z,6.10
2022-09-25T00:08:40.378Z,6.37
2022-09-25T00:09:20.153Z,6.03
2022-09-25T00:09:52.436Z,5.73
2022-09-25T00:10:25.403Z,5.37
2022-09-25T00:10:57.716Z,6.00
2022-09-25T00:11:34.317Z,5.57
2022-09-25T00:12:06.635Z,5.50
2022-09-25T00:12:39.735Z,6.27
2022-09-25T00:13:15.138Z,5.70
2022-09-25T00:13:48.226Z,5.20
2022-09-25T00:14:20.560Z,7.63
2022-09-25T00:14:55.835Z,5.37
2022-09-25T00:15:28.224Z,5.23
2022-09-25T00:16:00.723Z,5.40
2022-09-25T00:16:36.094Z,5.10
2022-09-25T00:17:08.415Z,5.33
2022-09-25T00:17:40.760Z,5.33
2022-09-25T00:18:15.644Z,5.00
2022-09-25T00:19:02.934Z,5.00
2022-09-25T00:19:50.185Z,4.70
2022-09-25T00:20:24.259Z,4.70
2022-09-25T00:21:01.142Z,5.00
2022-09-25T00:21:33.778Z,5.13
2022-09-25T00:22:08.754Z,5.00
2022-09-25T00:22:42.439Z,4.67
2022-09-25T00:23:17.327Z,4.57
2022-09-25T00:23:53.378Z,4.90
2022-09-25T00:24:26.328Z,4.47
2022-09-25T00:24:58.615Z,4.60
2022-09-25T00:25:33.546Z,4.80
2022-09-25T00:26:08.303Z,4.60
2022-09-25T00:26:42.671Z,4.73
2022-09-25T00:27:18.420Z,4.43
2022-09-25T00:27:53.804Z,4.60
2022-09-25T00:28:27.534Z,4.67
2022-09-25T00:29:03.100Z,5.20
2022-09-25T00:29:36.735Z,5.53
2022-09-25T00:30:11.040Z,5.53
2022-09-25T00:30:46.402Z,4.20
2022-09-25T00:31:24.757Z,4.30
2022-09-25T00:31:59.803Z,4.77
2022-09-25T00:32:34.971Z,3.93
2022-09-25T00:33:07.303Z,3.73
2022-09-25T00:33:42.228Z,3.97
2022-09-25T00:34:14.562Z,4.20
2022-09-25T00:34:47.076Z,4.40
2022-09-25T00:35:21.958Z,4.17
2022-09-25T00:35:54.293Z,4.57
2022-09-25T00:36:27.136Z,4.23
2022-09-25T00:37:02.072Z,4.40
2022-09-25T00:37:34.725Z,4.70
2022-09-25T00:38:07.036Z,4.10
2022-09-25T00:38:46.371Z,4.10
2022-09-25T00:39:18.687Z,3.80
2022-09-25T00:39:53.572Z,4.27
2022-09-25T00:40:26.049Z,4.93
2022-09-25T00:40:58.826Z,4.63
2022-09-25T00:41:34.391Z,3.67
2022-09-25T00:42:06.779Z,4.30
2022-09-25T00:42:39.078Z,4.40
2022-09-25T00:43:16.803Z,4.03
2022-09-25T00:43:51.229Z,5.03
2022-09-25T00:45:01.527Z,4.30
2022-09-25T00:45:33.831Z,4.30
2022-09-25T00:46:10.270Z,3.87
2022-09-25T00:46:45.958Z,4.47
2022-09-25T00:47:20.962Z,3.67
2022-09-25T00:47:56.239Z,3.50
2022-09-25T00:48:32.128Z,4.50
2022-09-25T00:49:06.187Z,4.03
2022-09-25T00:49:38.543Z,4.17
2022-09-25T00:50:19.843Z,3.70
2022-09-25T00:50:53.846Z,4.33
2022-09-25T00:51:35.069Z,4.17
2022-09-25T00:52:10.942Z,3.50
2022-09-25T00:52:43.565Z,4.20
2022-09-25T00:53:21.691Z,3.77
2022-09-25T00:53:58.231Z,3.77
2022-09-25T00:54:33.910Z,3.53
2022-09-25T00:55:12.851Z,4.03
2022-09-25T00:55:45.803Z,3.90
2022-09-25T00:56:21.224Z,3.93
2022-09-25T00:56:53.904Z,3.40
2022-09-25T00:57:27.910Z,4.30
2022-09-25T00:58:04.923Z,4.07
2022-09-25T00:58:38.659Z,3.97
2022-09-25T00:59:13.460Z,3.90
2022-09-25T00:59:50.942Z,4.30
2022-09-25T01:00:23.530Z,3.87
2022-09-25T01:00:58.525Z,3.20
2022-09-25T01:01:31.246Z,4.33
2022-09-25T01:02:03.719Z,3.47
2022-09-25T01:02:41.088Z,3.90
2022-09-25T01:03:13.974Z,4.13
2022-09-25T01:03:49.256Z,3.13
2022-09-25T01:04:22.741Z,4.03
2022-09-25T01:04:56.934Z,3.50
2022-09-25T01:05:34.387Z,3.60
2022-09-25T01:06:07.130Z,3.30
2022-09-25T01:06:39.909Z,4.00
2022-09-25T01:07:15.120Z,3.63
2022-09-25T01:07:49.386Z,3.70
2022-09-25T01:08:25.058Z,3.80
2022-09-25T01:09:02.870Z,3.77
2022-09-25T01:09:35.776Z,3.40
2022-09-25T01:10:09.429Z,3.67
2022-09-25T01:10:44.954Z,3.20
2022-09-25T01:11:17.609Z,3.87
2022-09-25T01:11:50.073Z,3.67
2022-09-25T01:12:24.979Z,3.30
2022-09-25T01:12:58.635Z,3.47
2022-09-25T01:13:31.008Z,3.30
2022-09-25T01:14:08.021Z,3.40
2022-09-25T01:14:41.631Z,3.37
2022-09-25T01:15:15.971Z,3.97
2022-09-25T01:15:54.487Z,3.43
2022-09-25T01:16:31.426Z,2.93
2022-09-25T01:17:07.966Z,3.10
2022-09-25T01:17:48.215Z,3.47
2022-09-25T01:18:42.262Z,3.13
2022-09-25T01:19:25.719Z,3.37
2022-09-25T01:20:07.975Z,3.90
2022-09-25T01:21:01.247Z,3.10
2022-09-25T01:21:42.668Z,3.43
2022-09-25T01:22:21.699Z,3.80
2022-09-25T01:23:06.331Z,3.93
2022-09-25T01:23:57.468Z,3.93
2022-09-25T01:24:42.382Z,4.10
2022-09-25T01:25:24.551Z,3.70
2022-09-25T01:26:12.478Z,4.13
2022-09-25T01:27:14.487Z,4.03
2022-09-25T01:27:58.102Z,5.37
2022-09-25T01:29:02.218Z,5.23
2022-09-25T01:29:37.553Z,4.80
2022-09-25T01:30:14.758Z,4.97
2022-09-25T01:30:52.670Z,4.80
2022-09-25T01:31:38.171Z,5.63
2022-09-25T01:32:14.259Z,5.00
2022-09-25T01:32:58.589Z,4.57
2022-09-25T01:33:35.217Z,4.63
2022-09-25T01:34:13.990Z,5.77
2022-09-25T01:34:54.450Z,5.07
2022-09-25T01:35:34.638Z,5.03
2022-09-25T01:36:13.286Z,4.67
2022-09-25T01:36:49.414Z,4.73
2022-09-25T01:37:25.576Z,4.73
2022-09-25T01:38:02.824Z,4.37
2022-09-25T01:38:38.762Z,3.90
2022-09-25T01:39:17.156Z,4.23
2022-09-25T01:40:00.107Z,3.90
2022-09-25T01:40:35.328Z,4.47
2022-09-25T01:41:15.308Z,4.20
2022-09-25T01:41:50.930Z,3.67
2022-09-25T01:42:28.123Z,3.30
2022-09-25T01:43:07.754Z,3.40
2022-09-25T01:43:42.744Z,4.00
2022-09-25T01:44:21.777Z,3.37
2022-09-25T01:45:00.709Z,3.90
2022-09-25T01:45:39.154Z,3.60
2022-09-25T01:46:18.503Z,3.63
2022-09-25T01:46:52.561Z,3.20
2022-09-25T01:47:28.258Z,3.47
2022-09-25T01:48:04.832Z,3.40
2022-09-25T01:48:38.340Z,2.97
2022-09-25T01:49:13.417Z,3.10
2022-09-25T01:49:51.504Z,3.73
2022-09-25T01:50:27.767Z,3.80
2022-09-25T01:51:02.286Z,3.73
2022-09-25T01:51:41.079Z,3.33
2022-09-25T01:52:17.295Z,3.20
2022-09-25T01:52:52.401Z,3.40
2022-09-25T01:53:32.611Z,3.07
2022-09-25T01:54:08.433Z,3.17
2022-09-25T01:54:43.834Z,3.53
2022-09-25T01:55:22.006Z,3.33
2022-09-25T01:55:57.375Z,3.20
2022-09-25T01:56:33.780Z,2.93
2022-09-25T01:57:12.377Z,3.47
2022-09-25T01:57:49.423Z,3.40
2022-09-25T01:58:26.103Z,3.30
2022-09-25T01:59:04.032Z,2.80
2022-09-25T01:59:44.267Z,3.30
2022-09-25T02:00:20.022Z,3.47
2022-09-25T02:00:58.307Z,3.00
2022-09-25T02:01:34.787Z,3.40
2022-09-25T02:02:10.499Z,2.87
2022-09-25T02:02:49.943Z,3.20
2022-09-25T02:03:26.097Z,2.90
2022-09-25T02:04:00.374Z,3.50
2022-09-25T02:04:37.991Z,3.33
2022-09-25T02:05:13.099Z,2.80
2022-09-25T02:05:48.783Z,3.30
2022-09-25T02:06:24.210Z,2.80
2022-09-25T02:06:59.510Z,2.53
2022-09-25T02:07:36.635Z,3.30
2022-09-25T02:08:14.099Z,2.97
2022-09-25T02:08:50.568Z,3.17
2022-09-25T02:09:30.495Z,2.93
2022-09-25T02:10:07.606Z,3.47
2022-09-25T02:10:44.350Z,2.90
2022-09-25T02:11:19.926Z,2.90
2022-09-25T02:11:56.611Z,2.80
2022-09-25T02:12:34.513Z,2.63
2022-09-25T02:13:08.982Z,3.37
2022-09-25T02:13:48.040Z,3.30
2022-09-25T02:14:21.890Z,3.00
2022-09-25T02:15:03.694Z,2.80
2022-09-25T02:15:38.898Z,2.43
2022-09-25T02:16:13.799Z,2.70
2022-09-25T02:16:51.779Z,2.60
2022-09-25T02:17:56.043Z,2.70
2022-09-25T02:18:43.990Z,2.97
2022-09-25T02:19:32.088Z,2.43
2022-09-25T02:20:20.661Z,2.60
2022-09-25T02:20:58.457Z,3.27
2022-09-25T02:21:41.995Z,2.90
2022-09-25T02:22:17.518Z,3.07
2022-09-25T02:22:52.760Z,2.63
2022-09-25T02:23:32.034Z,2.97
2022-09-25T02:24:10.479Z,3.00
2022-09-25T02:24:48.285Z,2.90
2022-09-25T02:25:29.083Z,2.93
2022-09-25T02:26:08.428Z,2.37
2022-09-25T02:26:40.773Z,2.37
2022-09-25T02:27:15.842Z,2.83
2022-09-25T02:27:48.135Z,2.77
2022-09-25T02:28:20.461Z,2.40
2022-09-25T02:28:54.072Z,2.80
2022-09-25T02:29:29.071Z,2.30
2022-09-25T02:30:04.979Z,2.93
2022-09-25T02:30:37.331Z,2.77
2022-09-25T02:31:15.031Z,2.53
2022-09-25T02:31:49.375Z,2.70
2022-09-25T02:32:25.127Z,3.07
2022-09-25T02:33:00.357Z,2.73
2022-09-25T02:33:32.759Z,2.37
2022-09-25T02:34:07.270Z,2.43
2022-09-25T02:34:45.667Z,3.30
2022-09-25T02:35:18.775Z,2.60
2022-09-25T02:35:51.059Z,2.20
2022-09-25T02:36:26.087Z,2.70
2022-09-25T02:36:58.862Z,2.37
2022-09-25T02:37:31.184Z,2.73
2022-09-25T02:38:06.557Z,2.40
2022-09-25T02:38:38.891Z,2.30
2022-09-25T02:39:12.110Z,2.43
2022-09-25T02:39:50.077Z,3.00
2022-09-25T02:40:25.847Z,2.10
2022-09-25T02:41:07.463Z,2.23
2022-09-25T02:41:52.267Z,2.70
2022-09-25T02:42:32.762Z,1.97
2022-09-25T02:43:13.665Z,2.67
2022-09-25T02:43:56.347Z,2.60
2022-09-25T02:44:34.275Z,2.00
2022-09-25T02:45:15.016Z,3.37
2022-09-25T02:45:56.113Z,2.60
2022-09-25T02:46:34.366Z,2.90
2022-09-25T02:47:15.137Z,2.60
2022-09-25T02:47:58.931Z,2.10
2022-09-25T02:48:39.012Z,2.60
2022-09-25T02:49:25.028Z,2.57
2022-09-25T02:50:08.436Z,2.70
2022-09-25T02:50:46.339Z,2.80
2022-09-25T02:51:24.681Z,2.60
2022-09-25T02:52:08.104Z,2.53
2022-09-25T02:52:46.244Z,2.60
2022-09-25T02:53:21.677Z,2.40
2022-09-25T02:53:59.624Z,2.80
2022-09-25T02:54:37.547Z,2.85
2022-09-25T02:55:13.251Z,2.80
2022-09-25T02:55:49.950Z,3.00
2022-09-25T02:56:29.550Z,2.23
2022-09-25T02:57:05.372Z,2.67
2022-09-25T02:57:42.591Z,2.63
2022-09-25T02:58:19.918Z,2.80
2022-09-25T02:58:55.058Z,2.83
2022-09-25T02:59:31.709Z,2.77
2022-09-25T03:00:09.920Z,2.50
2022-09-25T03:00:47.247Z,2.97
2022-09-25T03:01:24.144Z,2.50
2022-09-25T03:01:57.588Z,2.63
2022-09-25T03:02:30.781Z,2.50
2022-09-25T03:03:07.522Z,2.23
2022-09-25T03:03:40.858Z,2.13
2022-09-25T03:04:15.242Z,1.70
2022-09-25T03:04:51.205Z,2.30
2022-09-25T03:05:25.164Z,2.30
2022-09-25T03:06:00.927Z,2.20
2022-09-25T03:06:33.385Z,2.23
2022-09-25T03:07:06.318Z,2.77
2022-09-25T03:07:53.431Z,2.07
2022-09-25T03:08:44.322Z,2.50
2022-09-25T03:09:20.296Z,2.10
2022-09-25T03:09:53.855Z,2.20
2022-09-25T03:10:31.644Z,2.80
2022-09-25T03:11:12.603Z,2.00
2022-09-25T03:11:44.879Z,2.23
2022-09-25T03:12:17.474Z,2.50
2022-09-25T03:12:49.937Z,2.27
2022-09-25T03:13:31.457Z,2.27
2022-09-25T03:14:06.103Z,2.03
2022-09-25T03:14:41.398Z,2.43
2022-09-25T03:15:13.852Z,2.13
2022-09-25T03:15:52.503Z,2.83
2022-09-25T03:16:34.677Z,2.70
2022-09-25T03:17:07.977Z,2.40
2022-09-25T03:17:40.314Z,2.50
2022-09-25T03:18:15.792Z,2.60
2022-09-25T03:18:48.546Z,2.03
2022-09-25T03:19:21.043Z,1.90
2022-09-25T03:20:01.398Z,2.30
2022-09-25T03:20:33.687Z,2.07
2022-09-25T03:21:07.547Z,2.00
2022-09-25T03:21:44.321Z,2.10
2022-09-25T03:22:16.728Z,2.20
2022-09-25T03:22:55.559Z,2.00
2022-09-25T03:23:30.514Z,1.90
2022-09-25T03:24:06.229Z,2.80
2022-09-25T03:24:43.054Z,2.50
2022-09-25T03:25:17.882Z,2.50
2022-09-25T03:25:50.661Z,3.00
2022-09-25T03:26:27.412Z,2.73
2022-09-25T03:27:02.498Z,2.80
2022-09-25T03:27:34.857Z,2.10
2022-09-25T03:28:17.122Z,2.27
2022-09-25T03:28:49.535Z,2.03
2022-09-25T03:29:22.243Z,2.00
2022-09-25T03:29:58.447Z,2.03
2022-09-25T03:30:32.914Z,2.20
2022-09-25T03:31:13.348Z,2.43
2022-09-25T03:31:46.808Z,2.20
2022-09-25T03:32:19.219Z,2.30
2022-09-25T03:32:55.676Z,1.90
2022-09-25T03:33:35.712Z,2.30
2022-09-25T03:34:15.756Z,2.73
2022-09-25T03:34:48.099Z,2.00
2022-09-25T03:35:20.520Z,3.37
2022-09-25T03:36:01.483Z,2.00
2022-09-25T03:36:36.687Z,2.60
2022-09-25T03:37:09.001Z,2.17
2022-09-25T03:37:44.332Z,2.10
2022-09-25T03:38:20.371Z,2.27
2022-09-25T03:38:57.954Z,2.10
2022-09-25T03:39:30.253Z,2.03
2022-09-25T03:40:09.431Z,2.00
2022-09-25T03:40:42.223Z,1.97
2022-09-25T03:41:21.756Z,2.40
2022-09-25T03:41:54.047Z,2.00
2022-09-25T03:42:28.476Z,2.00
2022-09-25T03:43:37.323Z,1.77
2022-09-25T03:44:10.130Z,2.10
2022-09-25T03:44:46.987Z,1.90
2022-09-25T03:45:19.595Z,2.13
2022-09-25T03:45:52.048Z,2.00
2022-09-25T03:46:31.579Z,2.20
2022-09-25T03:47:04.024Z,2.10
2022-09-25T03:47:36.374Z,2.13
2022-09-25T03:48:11.506Z,2.13
2022-09-25T03:48:49.799Z,2.50
2022-09-25T03:49:26.259Z,2.40
2022-09-25T03:49:58.789Z,2.27
2022-09-25T03:50:40.350Z,2.30
2022-09-25T03:51:13.066Z,2.43
2022-09-25T03:51:50.035Z,2.20
2022-09-25T03:52:25.291Z,2.47
2022-09-25T03:52:57.620Z,2.80
2022-09-25T03:53:33.843Z,2.03
2022-09-25T03:54:11.819Z,2.40
2022-09-25T03:54:47.408Z,2.33
2022-09-25T03:55:20.298Z,2.40
2022-09-25T03:55:53.072Z,2.63
2022-09-25T03:56:33.585Z,2.30
2022-09-25T03:57:10.350Z,2.33
2022-09-25T03:57:44.097Z,2.37
2022-09-25T03:58:22.667Z,2.60
2022-09-25T03:58:56.985Z,1.93
2022-09-25T03:59:30.255Z,2.10
2022-09-25T04:00:06.678Z,2.20
2022-09-25T04:00:46.230Z,2.40
2022-09-25T04:01:22.105Z,2.30
2022-09-25T04:01:57.151Z,2.20
2022-09-25T04:02:31.397Z,2.30
2022-09-25T04:03:05.371Z,2.23
2022-09-25T04:03:47.460Z,2.80
2022-09-25T04:04:19.811Z,2.50
2022-09-25T04:04:55.134Z,2.27
2022-09-25T04:05:30.968Z,2.17
2022-09-25T04:06:05.016Z,2.17
2022-09-25T04:06:37.295Z,2.83
2022-09-25T04:07:12.375Z,2.40
2022-09-25T04:07:44.655Z,2.33
2022-09-25T04:08:17.463Z,2.17
2022-09-25T04:08:53.201Z,2.43
2022-09-25T04:09:25.720Z,2.30
2022-09-25T04:09:58.002Z,2.53
2022-09-25T04:10:32.946Z,2.07
2022-09-25T04:11:05.666Z,2.20
2022-09-25T04:11:38.559Z,2.00
2022-09-25T04:12:13.476Z,2.40
2022-09-25T04:12:45.775Z,2.00
2022-09-25T04:13:19.747Z,2.40
2022-09-25T04:13:57.045Z,2.00
2022-09-25T04:14:29.903Z,2.10
2022-09-25T04:15:02.434Z,2.30
2022-09-25T04:15:34.894Z,2.40
2022-09-25T04:16:13.472Z,2.27
2022-09-25T04:16:47.146Z,2.57
2022-09-25T04:17:22.121Z,2.70
2022-09-25T04:17:54.594Z,2.30
2022-09-25T04:18:31.932Z,2.37
2022-09-25T04:19:05.286Z,3.90
2022-09-25T04:19:39.878Z,2.17
2022-09-25T04:20:15.621Z,2.43
2022-09-25T04:20:48.026Z,2.50
2022-09-25T04:21:23.703Z,2.60
2022-09-25T04:21:58.842Z,2.63
2022-09-25T04:22:31.137Z,2.47
2022-09-25T04:23:03.539Z,2.30
2022-09-25T04:23:39.046Z,1.90
2022-09-25T04:24:26.506Z,2.07
2022-09-25T04:25:04.191Z,2.53
2022-09-25T04:25:36.551Z,2.40
2022-09-25T04:26:09.519Z,2.53
2022-09-25T04:26:47.952Z,2.40
2022-09-25T04:27:22.336Z,2.07
2022-09-25T04:27:57.179Z,2.20
2022-09-25T04:28:35.993Z,2.37
2022-09-25T04:29:08.506Z,1.73
2022-09-25T04:29:41.131Z,2.10
2022-09-25T04:30:16.907Z,2.17
2022-09-25T04:30:49.345Z,1.97
2022-09-25T04:31:22.483Z,1.90
2022-09-25T04:32:11.367Z,2.23
2022-09-25T04:33:04.227Z,1.80
2022-09-25T04:33:51.072Z,1.77
2022-09-25T04:34:23.544Z,1.77
2022-09-25T04:34:58.735Z,2.10
2022-09-25T04:35:31.236Z,2.40
2022-09-25T04:36:09.086Z,2.00
2022-09-25T04:36:45.070Z,2.20
2022-09-25T04:37:17.492Z,2.60
2022-09-25T04:37:53.290Z,2.93
2022-09-25T04:38:25.625Z,2.70
2022-09-25T04:38:59.635Z,2.10
2022-09-25T04:39:40.799Z,2.60
2022-09-25T04:40:21.149Z,2.90
2022-09-25T04:40:57.445Z,3.17
2022-09-25T04:41:33.352Z,3.00
2022-09-25T04:42:05.719Z,2.80
2022-09-25T04:42:40.135Z,3.40
2022-09-25T04:43:15.450Z,3.40
2022-09-25T04:43:48.812Z,3.83
2022-09-25T04:44:21.372Z,3.13
2022-09-25T04:45:02.123Z,3.00
2022-09-25T04:45:36.973Z,3.37
2022-09-25T04:46:18.291Z,3.23
2022-09-25T04:46:56.303Z,3.47
2022-09-25T04:47:30.238Z,3.50
2022-09-25T04:48:05.442Z,3.30
2022-09-25T04:48:40.475Z,3.60
2022-09-25T04:49:12.908Z,3.33
2022-09-25T04:49:47.971Z,3.23
2022-09-25T04:50:24.619Z,3.27
2022-09-25T04:50:58.326Z,3.37
2022-09-25T04:51:31.210Z,4.90
2022-09-25T04:52:09.458Z,4.30
2022-09-25T04:52:45.472Z,4.10
2022-09-25T04:53:23.081Z,4.40
2022-09-25T04:53:57.972Z,4.43
2022-09-25T04:54:30.319Z,6.30
2022-09-25T04:55:05.487Z,4.40
2022-09-25T04:55:46.311Z,4.43
2022-09-25T04:56:18.646Z,3.90
2022-09-25T04:56:51.228Z,4.03
2022-09-25T04:57:53.576Z,4.10
2022-09-25T04:58:19.346Z,4.40
2022-09-25T04:58:54.251Z,5.27
2022-09-25T04:59:26.522Z,5.20
2022-09-25T04:59:58.927Z,4.88
2022-09-25T05:00:36.580Z,6.43
2022-09-25T05:01:10.299Z,6.27
2022-09-25T05:01:42.773Z,6.90
2022-09-25T05:02:18.073Z,6.30
2022-09-25T05:02:50.536Z,5.77
2022-09-25T05:03:25.609Z,5.77
2022-09-25T05:04:02.778Z,6.33
2022-09-25T05:04:38.932Z,7.00
2022-09-25T05:05:11.235Z,5.87
2022-09-25T05:05:46.119Z,5.50
2022-09-25T05:06:18.466Z,4.97
2022-09-25T05:06:51.641Z,5.63
2022-09-25T05:07:26.577Z,5.83
2022-09-25T05:07:59.730Z,5.47
2022-09-25T05:08:32.037Z,5.70
2022-09-25T05:09:07.135Z,6.17
2022-09-25T05:09:39.455Z,5.50
2022-09-25T05:10:11.747Z,4.93
2022-09-25T05:10:46.878Z,5.43
2022-09-25T05:11:19.274Z,5.80
2022-09-25T05:11:51.574Z,5.40
2022-09-25T05:12:26.463Z,7.13
2022-09-25T05:12:59.999Z,6.40
2022-09-25T05:13:32.280Z,6.73
2022-09-25T05:14:07.319Z,6.27
2022-09-25T05:14:41.248Z,7.40
2022-09-25T05:15:14.031Z,5.17
2022-09-25T05:15:49.043Z,5.23
2022-09-25T05:16:21.711Z,6.50
2022-09-25T05:16:54.079Z,7.70
2022-09-25T05:17:26.447Z,6.90
2022-09-25T05:18:04.746Z,8.13
2022-09-25T05:18:39.648Z,8.23
2022-09-25T05:19:12.480Z,8.17
2022-09-25T05:19:47.402Z,7.67
2022-09-25T05:20:19.690Z,7.63
2022-09-25T05:20:53.591Z,8.07
2022-09-25T05:21:28.563Z,8.33
2022-09-25T05:22:01.081Z,7.83
2022-09-25T05:22:33.416Z,8.20
2022-09-25T05:23:08.648Z,9.13
2022-09-25T05:23:40.928Z,8.40
2022-09-25T05:24:13.686Z,8.50
2022-09-25T05:24:48.570Z,7.20
2022-09-25T05:25:23.356Z,7.80
2022-09-25T05:25:58.301Z,8.03
2022-09-25T05:26:34.616Z,7.80
2022-09-25T05:27:07.168Z,8.80
2022-09-25T05:27:39.463Z,8.77
2022-09-25T05:28:14.803Z,9.33
2022-09-25T05:28:50.260Z,8.60
2022-09-25T05:29:22.984Z,8.43
2022-09-25T05:29:57.919Z,9.57
2022-09-25T05:30:31.882Z,9.03
2022-09-25T05:31:05.076Z,9.27
2022-09-25T05:31:40.207Z,8.33
2022-09-25T05:32:12.576Z,9.77
2022-09-25T05:32:49.572Z,9.03
2022-09-25T05:33:24.543Z,8.63
2022-09-25T05:33:59.439Z,8.30
2022-09-25T05:34:31.720Z,8.30
2022-09-25T05:35:07.115Z,8.83
2022-09-25T05:35:39.407Z,9.13
2022-09-25T05:36:12.809Z,9.80
2022-09-25T05:36:47.897Z,9.80
2022-09-25T05:37:20.290Z,9.00
2022-09-25T05:37:52.619Z,9.40
2022-09-25T05:38:27.780Z,9.33
2022-09-25T05:39:00.350Z,9.47
2022-09-25T05:39:35.266Z,9.13
2022-09-25T05:40:09.185Z,8.50
2022-09-25T05:40:41.531Z,9.90
2022-09-25T05:41:16.819Z,9.70
2022-09-25T05:41:49.110Z,9.80
2022-09-25T05:42:21.418Z,9.33
2022-09-25T05:42:57.186Z,10.40
2022-09-25T05:43:29.501Z,10.07
2022-09-25T05:44:06.839Z,9.80
2022-09-25T05:44:42.414Z,9.90
2022-09-25T05:45:15.263Z,9.93
2022-09-25T05:45:54.152Z,11.10
2022-09-25T05:46:29.159Z,9.53
2022-09-25T05:47:01.786Z,10.40
2022-09-25T05:47:34.097Z,10.13
2022-09-25T05:48:10.203Z,9.60
2022-09-25T05:48:42.775Z,9.93
2022-09-25T05:49:17.720Z,10.03
2022-09-25T05:49:52.633Z,10.37
2022-09-25T05:50:25.402Z,9.97
2022-09-25T05:50:58.627Z,9.67
2022-09-25T05:51:33.797Z,9.80
2022-09-25T05:52:06.072Z,10.33
2022-09-25T05:52:38.619Z,9.97
2022-09-25T05:53:11.007Z,10.90
2022-09-25T05:53:45.904Z,10.47
2022-09-25T05:54:18.166Z,9.93
2022-09-25T05:54:50.509Z,10.83
2022-09-25T05:55:25.495Z,11.00
2022-09-25T05:55:59.955Z,10.00
2022-09-25T05:56:32.235Z,9.50
2022-09-25T05:57:07.260Z,9.50
2022-09-25T05:57:39.646Z,10.73
2022-09-25T05:58:11.956Z,10.63
2022-09-25T05:58:47.407Z,10.23
2022-09-25T05:59:19.687Z,10.40
2022-09-25T05:59:51.976Z,10.80
2022-09-25T06:00:24.263Z,10.20
2022-09-25T06:01:02.658Z,10.30
2022-09-25T06:01:35.023Z,9.57
2022-09-25T06:02:10.011Z,9.77
2022-09-25T06:02:42.620Z,10.87
2022-09-25T06:03:15.151Z,11.60
2022-09-25T06:03:50.066Z,10.10
2022-09-25T06:04:25.501Z,11.00
2022-09-25T06:04:57.775Z,11.97
2022-09-25T06:05:30.384Z,10.67
2022-09-25T06:06:05.422Z,11.63
2022-09-25T06:06:37.707Z,10.33
2022-09-25T06:07:10.239Z,10.60
2022-09-25T06:07:45.172Z,10.20
2022-09-25T06:08:17.496Z,9.90
2022-09-25T06:08:52.434Z,9.77
2022-09-25T06:09:24.720Z,9.70
2022-09-25T06:09:57.094Z,10.47
2022-09-25T06:10:32.357Z,9.68
2022-09-25T06:11:05.490Z,9.97
2022-09-25T06:11:37.810Z,9.00
2022-09-25T06:12:12.783Z,9.90
2022-09-25T06:12:45.102Z,9.70
2022-09-25T06:13:17.396Z,8.80
2022-09-25T06:13:54.765Z,10.17
2022-09-25T06:14:27.100Z,10.03
2022-09-25T06:14:59.404Z,10.10
2022-09-25T06:15:37.617Z,9.60
2022-09-25T06:16:14.481Z,10.10
2022-09-25T06:16:48.005Z,9.83
2022-09-25T06:17:22.981Z,10.00
2022-09-25T06:17:55.433Z,9.97
2022-09-25T06:18:28.086Z,8.90
2022-09-25T06:19:02.988Z,9.30
2022-09-25T06:19:37.879Z,9.00
2022-09-25T06:20:15.961Z,9.90
2022-09-25T06:20:51.995Z,8.70
2022-09-25T06:21:24.492Z,9.80
2022-09-25T06:21:57.931Z,8.97
2022-09-25T06:22:32.835Z,9.43
2022-09-25T06:23:05.175Z,9.40
2022-09-25T06:23:37.477Z,9.43
2022-09-25T06:24:13.540Z,9.27
2022-09-25T06:24:45.969Z,9.50
2022-09-25T06:25:19.262Z,9.70
2022-09-25T06:25:54.198Z,10.33
2022-09-25T06:26:26.540Z,9.37
2022-09-25T06:26:58.822Z,10.47
2022-09-25T06:27:34.367Z,10.67
2022-09-25T06:28:06.694Z,10.70
2022-09-25T06:28:39.039Z,10.43
2022-09-25T06:29:13.932Z,10.03
2022-09-25T06:29:46.305Z,9.07
2022-09-25T06:30:20.173Z,10.20
2022-09-25T06:30:55.156Z,9.53
2022-09-25T06:31:27.599Z,9.60
2022-09-25T06:31:59.979Z,10.20
2022-09-25T06:32:34.859Z,10.80
2022-09-25T06:33:09.974Z,10.50
2022-09-25T06:33:43.957Z,9.60
2022-09-25T06:34:19.358Z,9.90
2022-09-25T06:34:54.278Z,10.70
2022-09-25T06:35:27.210Z,10.00
2022-09-25T06:36:02.234Z,10.83
2022-09-25T06:36:34.642Z,17.57
2022-09-25T06:37:06.922Z,31.37
2022-09-25T06:37:41.802Z,23.67
2022-09-25T06:38:14.859Z,15.30
2022-09-25T06:38:47.595Z,17.70
2022-09-25T06:39:22.505Z,17.13
2022-09-25T06:39:54.791Z,14.20
2022-09-25T06:40:28.209Z,14.20
2022-09-25T06:41:03.603Z,14.93
2022-09-25T06:41:36.874Z,12.20
2022-09-25T06:42:09.159Z,11.57
2022-09-25T06:42:46.254Z,11.47
2022-09-25T06:43:18.622Z,9.60
2022-09-25T06:43:53.894Z,9.80
2022-09-25T06:44:28.380Z,9.77
2022-09-25T06:45:00.664Z,9.43
2022-09-25T06:45:39.338Z,10.70
2022-09-25T06:46:11.709Z,9.30
2022-09-25T06:46:45.359Z,9.70
2022-09-25T06:47:24.712Z,10.30
2022-09-25T06:48:01.402Z,8.48
2022-09-25T06:48:33.765Z,9.80
2022-09-25T06:49:08.771Z,9.80
2022-09-25T06:49:41.299Z,9.47
2022-09-25T06:50:16.728Z,9.23
2022-09-25T06:50:53.627Z,10.90
2022-09-25T06:51:32.442Z,9.57
2022-09-25T06:52:05.222Z,10.67
2022-09-25T06:52:45.215Z,9.80
2022-09-25T06:53:18.646Z,10.00
2022-09-25T06:53:55.972Z,10.00
2022-09-25T06:54:30.751Z,10.10
2022-09-25T06:55:03.079Z,10.40
2022-09-25T06:55:38.031Z,10.00
2022-09-25T06:56:10.374Z,10.13
2022-09-25T06:56:43.144Z,9.47
2022-09-25T06:57:18.100Z,9.23
2022-09-25T06:57:50.372Z,9.70
2022-09-25T06:58:23.952Z,9.03
2022-09-25T06:58:58.868Z,10.57
2022-09-25T06:59:31.168Z,9.20
2022-09-25T07:00:04.154Z,9.23
2022-09-25T07:00:39.201Z,10.00
2022-09-25T07:01:12.034Z,10.30
2022-09-25T07:01:44.465Z,10.50
2022-09-25T07:02:31.847Z,10.40
2022-09-25T07:03:19.336Z,11.00
2022-09-25T07:03:54.225Z,9.53
2022-09-25T07:04:26.900Z,9.47
2022-09-25T07:05:00.560Z,9.40
2022-09-25T07:05:36.087Z,9.60
2022-09-25T07:06:12.846Z,8.83
2022-09-25T07:06:45.963Z,11.17
2022-09-25T07:07:19.999Z,10.30
2022-09-25T07:07:54.925Z,10.80
2022-09-25T07:08:28.020Z,9.27
2022-09-25T07:09:03.828Z,9.67
2022-09-25T07:09:36.390Z,9.80
2022-09-25T07:10:08.976Z,9.60
2022-09-25T07:10:45.609Z,9.50
2022-09-25T07:11:22.642Z,9.10
2022-09-25T07:11:56.286Z,9.47
2022-09-25T07:12:28.564Z,9.30
2022-09-25T07:13:04.183Z,9.60
2022-09-25T07:13:36.978Z,10.00
2022-09-25T07:14:10.171Z,11.40
2022-09-25T07:14:47.048Z,10.80
2022-09-25T07:15:19.377Z,11.60
2022-09-25T07:15:53.055Z,10.27
2022-09-25T07:16:30.934Z,10.23
2022-09-25T07:17:03.256Z,10.00
2022-09-25T07:17:35.522Z,9.90
2022-09-25T07:18:10.432Z,10.10
2022-09-25T07:18:44.103Z,9.53
2022-09-25T07:19:19.069Z,9.50
2022-09-25T07:19:51.387Z,8.73
2022-09-25T07:20:23.714Z,9.10
2022-09-25T07:21:06.928Z,8.37
2022-09-25T07:21:39.257Z,9.10
2022-09-25T07:22:12.819Z,8.60
2022-09-25T07:22:47.924Z,8.70
2022-09-25T07:23:21.678Z,9.00
2022-09-25T07:23:54.016Z,8.37
2022-09-25T07:24:30.139Z,8.50
2022-09-25T07:25:02.541Z,8.30
2022-09-25T07:25:34.807Z,7.10
2022-09-25T07:26:11.388Z,6.87
2022-09-25T07:26:43.718Z,6.83
2022-09-25T07:27:16.093Z,7.70
2022-09-25T07:27:51.040Z,7.93
2022-09-25T07:28:23.328Z,8.30
2022-09-25T07:29:00.355Z,7.90
2022-09-25T07:29:32.679Z,7.37
2022-09-25T07:30:06.095Z,6.80
2022-09-25T07:30:38.368Z,7.30
2022-09-25T07:31:15.023Z,7.20
2022-09-25T07:31:47.387Z,7.17
2022-09-25T07:32:20.769Z,7.63
2022-09-25T07:32:59.912Z,7.40
2022-09-25T07:33:33.160Z,7.43
2022-09-25T07:34:09.613Z,7.50
2022-09-25T07:34:42.702Z,7.40
2022-09-25T07:35:15.130Z,7.13
2022-09-25T07:35:50.042Z,7.90
2022-09-25T07:36:24.961Z,6.50
2022-09-25T07:36:59.871Z,6.87
2022-09-25T07:37:32.165Z,6.97
2022-09-25T07:38:04.808Z,6.20
2022-09-25T07:38:39.839Z,6.53
2022-09-25T07:39:17.486Z,6.33
2022-09-25T07:39:53.405Z,6.63
2022-09-25T07:40:27.548Z,6.30
2022-09-25T07:40:59.889Z,7.13
2022-09-25T07:41:35.100Z,7.10
2022-09-25T07:42:08.676Z,8.50
2022-09-25T07:42:41.123Z,9.13
2022-09-25T07:43:16.022Z,13.10
2022-09-25T07:43:58.402Z,23.17
2022-09-25T07:44:48.729Z,10.60
2022-09-25T07:45:21.316Z,7.63
2022-09-25T07:45:53.869Z,7.60
2022-09-25T07:46:31.537Z,7.73
2022-09-25T07:47:03.987Z,7.57
2022-09-25T07:47:36.302Z,7.33
2022-09-25T07:48:12.409Z,7.93
2022-09-25T07:48:44.694Z,8.20
2022-09-25T07:49:16.973Z,7.50
2022-09-25T07:49:51.863Z,7.63
2022-09-25T07:50:24.375Z,7.93
2022-09-25T07:51:00.078Z,8.13
2022-09-25T07:51:37.618Z,7.37
2022-09-25T07:52:09.904Z,7.73